Andromeda Voyager — C6FZ6 — position and weather

sailwx.info

Track history (hours):
 
Tides and Currents Weather Stations Pressure Air Temp Water Temp Dewpoint Dewpoint Depression Visibility Wind Speed Wind Dir Waves Ship Positions

Andromeda Voyager

Last reported at 2018-Jun-20 15:00 UTC. Time now 2018-Jun-20 15:05 UTC.
Position N 33°06' W 117°56'.

Type: Tanker. MMSI: 311732000.

Date/timePositionNaut miles runAvg speedWind from/ knotsBaromVisibWave heightAir tempDewpointWater temp
2018-Jun-20 15:00N 33°06' W 117°56'3 5.6
2018-Jun-20 14:30N 33°04' W 117°54'3 5.7
2018-Jun-20 14:00N 33°01' W 117°53'2 4.2
2018-Jun-20 13:30N 32°59' W 117°52'0 0.8
2018-Jun-20 13:00N 32°59' W 117°52'0 0.4
2018-Jun-20 12:30N 32°59' W 117°52'0 0.2
2018-Jun-20 12:00N 32°59' W 117°51'0 0.6
2018-Jun-20 11:29N 32°59' W 117°51'0 0.2
2018-Jun-20 11:00N 32°59' W 117°51'0 0.9
2018-Jun-20 10:30N 32°60' W 117°51'0 0.5
2018-Jun-20 10:00N 32°60' W 117°50'0 0.7
2018-Jun-20 09:30N 32°60' W 117°50'0 0.4
2018-Jun-20 09:00N 33°00' W 117°50'0 0.7
2018-Jun-20 08:30N 33°00' W 117°50'0 0.5
2018-Jun-20 08:00N 33°01' W 117°50'0 0.8
2018-Jun-20 07:30N 33°01' W 117°50'0 0.6
2018-Jun-20 07:00N 33°01' W 117°49'0 0.9
2018-Jun-20 06:30N 33°02' W 117°49'0 0.6
2018-Jun-20 06:00N 33°02' W 117°49'0 0.8
2018-Jun-20 05:30N 33°02' W 117°49'0 0.6
2018-Jun-20 05:00N 33°02' W 117°48'0 0.7
2018-Jun-20 04:30N 33°03' W 117°48'0 0.5
2018-Jun-20 04:00N 33°03' W 117°48'0 0.6
2018-Jun-20 03:30N 33°03' W 117°48'0 0.4
2018-Jun-20 03:00N 33°03' W 117°49'0 0.5
2018-Jun-20 02:30N 33°04' W 117°49'0 0.6
2018-Jun-20 02:00N 33°04' W 117°49'0 0.8
2018-Jun-20 01:30N 33°04' W 117°49'0 0.9
2018-Jun-20 01:00N 33°04' W 117°50'0 0.9
2018-Jun-20 00:30N 33°05' W 117°50'1 1.1
2018-Jun-20 00:00N 33°05' W 117°51'1 1.8
2018-Jun-19 23:30N 33°04' W 117°52'2 4.1
2018-Jun-19 23:00N 33°03' W 117°50'1 1.1
2018-Jun-19 22:30N 33°03' W 117°49'0 0.8
2018-Jun-19 22:00N 33°03' W 117°49'0 0.8
2018-Jun-19 21:30N 33°02' W 117°49'0 0.7
2018-Jun-19 21:00N 33°02' W 117°48'0 0.7
2018-Jun-19 20:30N 33°02' W 117°48'0 0.6
2018-Jun-19 20:00N 33°02' W 117°48'0 0.7
2018-Jun-19 19:30N 33°01' W 117°48'0 0.7
2018-Jun-19 19:00N 33°01' W 117°47'0 0.8
2018-Jun-19 18:30N 33°01' W 117°47'0 0.7
2018-Jun-19 18:00N 33°00' W 117°47'0 0.6
2018-Jun-19 17:30N 33°00' W 117°47'0 0.3
2018-Jun-19 17:00N 33°00' W 117°47'0 0.3
2018-Jun-19 16:30N 32°60' W 117°47'0 0.4
2018-Jun-19 16:00N 32°60' W 117°47'0 0.7
2018-Jun-19 15:30N 32°59' W 117°47'0 0.9
2018-Jun-19 15:00N 32°59' W 117°47'0 0.9
2018-Jun-19 14:30N 32°59' W 117°48'0 0.9
2018-Jun-19 14:00N 32°59' W 117°48'0 0.9
2018-Jun-19 13:30N 32°59' W 117°49'0 0.9
2018-Jun-19 13:00N 32°58' W 117°49'0 0.9
2018-Jun-19 12:30N 32°58' W 117°50'0 0.8
2018-Jun-19 12:00N 32°58' W 117°50'0 0.9
2018-Jun-19 11:30N 32°57' W 117°50'0 0.8
2018-Jun-19 11:00N 32°57' W 117°51'0 0.8
2018-Jun-19 10:30N 32°57' W 117°51'0 0.6
2018-Jun-19 10:00N 32°56' W 117°51'0 0.6
2018-Jun-19 09:25N 32°56' W 117°51'0 0.7
2018-Jun-19 09:00N 32°56' W 117°51'0 0.7
2018-Jun-19 08:30N 32°56' W 117°51'0 0.8
2018-Jun-19 08:00N 32°57' W 117°51'0 0.9
2018-Jun-19 07:30N 32°57' W 117°51'0 0.7
2018-Jun-19 07:00N 32°58' W 117°51'0 0.8
2018-Jun-19 06:30N 32°58' W 117°51'0 0.8
2018-Jun-19 06:00N 32°58' W 117°51'0 0.8
2018-Jun-19 05:30N 32°59' W 117°51'0 0.8
2018-Jun-19 05:00N 32°59' W 117°51'0 0.9
2018-Jun-19 04:30N 32°60' W 117°51'0 0.8
2018-Jun-19 04:00N 33°00' W 117°51'0 0.9
2018-Jun-19 03:30N 33°01' W 117°51'0 0.9
2018-Jun-19 03:00N 33°01' W 117°52'1 1.8
2018-Jun-19 02:30N 33°02' W 117°52'1 2.9
2018-Jun-19 02:00N 33°03' W 117°53'2 3.9
2018-Jun-19 01:30N 33°05' W 117°54'2 4.4
2018-Jun-19 01:00N 33°07' W 117°55'2 4.1
2018-Jun-19 00:30N 33°08' W 117°57'1 2.2
2018-Jun-19 00:00N 33°09' W 117°57'2 3.4
2018-Jun-18 23:30N 33°11' W 117°56'1 1.0
2018-Jun-18 22:59N 33°10' W 117°56'0 0.6
2018-Jun-18 22:30N 33°10' W 117°56'0 0.5
2018-Jun-18 22:00N 33°10' W 117°55'0 0.4
2018-Jun-18 21:30N 33°10' W 117°55'1 1.5
2018-Jun-18 21:00N 33°09' W 117°55'3 6.3
2018-Jun-18 20:30N 33°06' W 117°54'5 9.4
2018-Jun-18 20:00N 33°01' W 117°53'5 9.8
2018-Jun-18 19:30N 32°57' W 117°52'510.0
2018-Jun-18 19:00N 32°52' W 117°51'510.0
2018-Jun-18 18:30N 32°47' W 117°50'5 9.9
2018-Jun-18 18:00N 32°42' W 117°49'5 9.9
2018-Jun-18 17:30N 32°37' W 117°47'5 9.8
2018-Jun-18 17:00N 32°32' W 117°45'5 9.7
2018-Jun-18 16:30N 32°28' W 117°43'5 9.8
2018-Jun-18 16:00N 32°23' W 117°41'23 4.5
2018-Jun-18 10:49N 32°02' W 117°29'0 0.2
2018-Jun-18 10:30N 32°02' W 117°29'1 0.1
2018-Jun-18 06:07N 32°02' W 117°29'0 0.2
2018-Jun-18 05:37N 32°02' W 117°29'0 0.2
2018-Jun-18 05:30N 32°02' W 117°29'0 0.3
2018-Jun-18 04:47N 32°02' W 117°29'0 0.2
2018-Jun-18 04:30N 32°02' W 117°29'0 0.2
2018-Jun-18 03:35N 32°01' W 117°29'3 0.2
2018-Jun-17 10:01N 32°01' W 117°26'0 0.5
2018-Jun-17 09:58N 32°01' W 117°26'0 0.5
2018-Jun-17 09:01N 32°00' W 117°26'0 0.6
2018-Jun-17 08:58N 32°00' W 117°26'0 0.5
2018-Jun-17 08:28N 31°60' W 117°26'0 0.5
2018-Jun-17 07:58N 31°60' W 117°26'0 0.5
2018-Jun-17 07:25N 31°59' W 117°26'0 0.5
2018-Jun-17 06:40N 31°59' W 117°25'0 0.5
2018-Jun-17 06:22N 31°59' W 117°25'1 0.5
2018-Jun-17 05:01N 31°59' W 117°25'0 0.4
2018-Jun-17 04:58N 31°59' W 117°25'1 1.1
2018-Jun-17 04:05N 31°58' W 117°25'1 3.2
2018-Jun-17 03:50N 31°57' W 117°26'2 4.8
2018-Jun-17 03:30N 31°57' W 117°28'5 8.1
2018-Jun-17 02:54N 31°54' W 117°33'511.5
2018-Jun-17 02:29N 31°51' W 117°37'711.7
2018-Jun-17 01:55N 31°46' W 117°43'512.1
2018-Jun-17 01:30N 31°43' W 117°47'912.1
2018-Jun-17 00:48N 31°37' W 117°54'512.3
2018-Jun-17 00:22N 31°33' W 117°58'412.2
2018-Jun-17 00:00N 31°30' W 118°02'612.2
2018-Jun-16 23:28N 31°25' W 118°07'612.3
2018-Jun-16 22:57N 31°20' W 118°12'812.6
2018-Jun-16 22:16N 31°14' W 118°19'312.8
2018-Jun-16 22:00N 31°12' W 118°22'812.8
2018-Jun-16 21:23N 31°06' W 118°29'612.3
2018-Jun-16 20:56N 31°03' W 118°34'613.0
2018-Jun-16 20:30N 31°02' W 118°40'712.7
2018-Jun-16 19:59N 31°00' W 118°48'712.6
2018-Jun-16 19:27N 30°59' W 118°55'612.3
2018-Jun-16 19:00N 30°58' W 119°02'712.2
2018-Jun-16 18:26N 30°56' W 119°09'  
Track history (hours):
 
Tides and Currents Weather Stations Pressure Air Temp Water Temp Dewpoint Dewpoint Depression Visibility Wind Speed Wind Dir Waves Ship Positions

Andromeda Voyager

Last reported at 2018-Jun-20 15:00 UTC. Time now 2018-Jun-20 15:05 UTC.
Position N 33°06' W 117°56'.

Type: Tanker. MMSI: 311732000.

Date/timePositionNaut miles runAvg speedWind from/ knotsBaromVisibWave heightAir tempDewpointWater temp
2018-Jun-20 15:00N 33°06' W 117°56'3 5.6
2018-Jun-20 14:30N 33°04' W 117°54'3 5.7
2018-Jun-20 14:00N 33°01' W 117°53'2 4.2
2018-Jun-20 13:30N 32°59' W 117°52'0 0.8
2018-Jun-20 13:00N 32°59' W 117°52'0 0.4
2018-Jun-20 12:30N 32°59' W 117°52'0 0.2
2018-Jun-20 12:00N 32°59' W 117°51'0 0.6
2018-Jun-20 11:29N 32°59' W 117°51'0 0.2
2018-Jun-20 11:00N 32°59' W 117°51'0 0.9
2018-Jun-20 10:30N 32°60' W 117°51'0 0.5
2018-Jun-20 10:00N 32°60' W 117°50'0 0.7
2018-Jun-20 09:30N 32°60' W 117°50'0 0.4
2018-Jun-20 09:00N 33°00' W 117°50'0 0.7
2018-Jun-20 08:30N 33°00' W 117°50'0 0.5
2018-Jun-20 08:00N 33°01' W 117°50'0 0.8
2018-Jun-20 07:30N 33°01' W 117°50'0 0.6
2018-Jun-20 07:00N 33°01' W 117°49'0 0.9
2018-Jun-20 06:30N 33°02' W 117°49'0 0.6
2018-Jun-20 06:00N 33°02' W 117°49'0 0.8
2018-Jun-20 05:30N 33°02' W 117°49'0 0.6
2018-Jun-20 05:00N 33°02' W 117°48'0 0.7
2018-Jun-20 04:30N 33°03' W 117°48'0 0.5
2018-Jun-20 04:00N 33°03' W 117°48'0 0.6
2018-Jun-20 03:30N 33°03' W 117°48'0 0.4
2018-Jun-20 03:00N 33°03' W 117°49'0 0.5
2018-Jun-20 02:30N 33°04' W 117°49'0 0.6
2018-Jun-20 02:00N 33°04' W 117°49'0 0.8
2018-Jun-20 01:30N 33°04' W 117°49'0 0.9
2018-Jun-20 01:00N 33°04' W 117°50'0 0.9
2018-Jun-20 00:30N 33°05' W 117°50'1 1.1
2018-Jun-20 00:00N 33°05' W 117°51'1 1.8
2018-Jun-19 23:30N 33°04' W 117°52'2 4.1
2018-Jun-19 23:00N 33°03' W 117°50'1 1.1
2018-Jun-19 22:30N 33°03' W 117°49'0 0.8
2018-Jun-19 22:00N 33°03' W 117°49'0 0.8
2018-Jun-19 21:30N 33°02' W 117°49'0 0.7
2018-Jun-19 21:00N 33°02' W 117°48'0 0.7
2018-Jun-19 20:30N 33°02' W 117°48'0 0.6
2018-Jun-19 20:00N 33°02' W 117°48'0 0.7
2018-Jun-19 19:30N 33°01' W 117°48'0 0.7
2018-Jun-19 19:00N 33°01' W 117°47'0 0.8
2018-Jun-19 18:30N 33°01' W 117°47'0 0.7
2018-Jun-19 18:00N 33°00' W 117°47'0 0.6
2018-Jun-19 17:30N 33°00' W 117°47'0 0.3
2018-Jun-19 17:00N 33°00' W 117°47'0 0.3
2018-Jun-19 16:30N 32°60' W 117°47'0 0.4
2018-Jun-19 16:00N 32°60' W 117°47'0 0.7
2018-Jun-19 15:30N 32°59' W 117°47'0 0.9
2018-Jun-19 15:00N 32°59' W 117°47'0 0.9
2018-Jun-19 14:30N 32°59' W 117°48'0 0.9
2018-Jun-19 14:00N 32°59' W 117°48'0 0.9
2018-Jun-19 13:30N 32°59' W 117°49'0 0.9
2018-Jun-19 13:00N 32°58' W 117°49'0 0.9
2018-Jun-19 12:30N 32°58' W 117°50'0 0.8
2018-Jun-19 12:00N 32°58' W 117°50'0 0.9
2018-Jun-19 11:30N 32°57' W 117°50'0 0.8
2018-Jun-19 11:00N 32°57' W 117°51'0 0.8
2018-Jun-19 10:30N 32°57' W 117°51'0 0.6
2018-Jun-19 10:00N 32°56' W 117°51'0 0.6
2018-Jun-19 09:25N 32°56' W 117°51'0 0.7
2018-Jun-19 09:00N 32°56' W 117°51'0 0.7
2018-Jun-19 08:30N 32°56' W 117°51'0 0.8
2018-Jun-19 08:00N 32°57' W 117°51'0 0.9
2018-Jun-19 07:30N 32°57' W 117°51'0 0.7
2018-Jun-19 07:00N 32°58' W 117°51'0 0.8
2018-Jun-19 06:30N 32°58' W 117°51'0 0.8
2018-Jun-19 06:00N 32°58' W 117°51'0 0.8
2018-Jun-19 05:30N 32°59' W 117°51'0 0.8
2018-Jun-19 05:00N 32°59' W 117°51'0 0.9
2018-Jun-19 04:30N 32°60' W 117°51'0 0.8
2018-Jun-19 04:00N 33°00' W 117°51'0 0.9
2018-Jun-19 03:30N 33°01' W 117°51'0 0.9
2018-Jun-19 03:00N 33°01' W 117°52'1 1.8
2018-Jun-19 02:30N 33°02' W 117°52'1 2.9
2018-Jun-19 02:00N 33°03' W 117°53'2 3.9
2018-Jun-19 01:30N 33°05' W 117°54'2 4.4
2018-Jun-19 01:00N 33°07' W 117°55'2 4.1
2018-Jun-19 00:30N 33°08' W 117°57'1 2.2
2018-Jun-19 00:00N 33°09' W 117°57'2 3.4
2018-Jun-18 23:30N 33°11' W 117°56'1 1.0
2018-Jun-18 22:59N 33°10' W 117°56'0 0.6
2018-Jun-18 22:30N 33°10' W 117°56'0 0.5
2018-Jun-18 22:00N 33°10' W 117°55'0 0.4
2018-Jun-18 21:30N 33°10' W 117°55'1 1.5
2018-Jun-18 21:00N 33°09' W 117°55'3 6.3
2018-Jun-18 20:30N 33°06' W 117°54'5 9.4
2018-Jun-18 20:00N 33°01' W 117°53'5 9.8
2018-Jun-18 19:30N 32°57' W 117°52'510.0
2018-Jun-18 19:00N 32°52' W 117°51'510.0
2018-Jun-18 18:30N 32°47' W 117°50'5 9.9
2018-Jun-18 18:00N 32°42' W 117°49'5 9.9
2018-Jun-18 17:30N 32°37' W 117°47'5 9.8
2018-Jun-18 17:00N 32°32' W 117°45'5 9.7
2018-Jun-18 16:30N 32°28' W 117°43'5 9.8
2018-Jun-18 16:00N 32°23' W 117°41'23 4.5
2018-Jun-18 10:49N 32°02' W 117°29'0 0.2
2018-Jun-18 10:30N 32°02' W 117°29'1 0.1
2018-Jun-18 06:07N 32°02' W 117°29'0 0.2
2018-Jun-18 05:37N 32°02' W 117°29'0 0.2
2018-Jun-18 05:30N 32°02' W 117°29'0 0.3
2018-Jun-18 04:47N 32°02' W 117°29'0 0.2
2018-Jun-18 04:30N 32°02' W 117°29'0 0.2
2018-Jun-18 03:35N 32°01' W 117°29'3 0.2
2018-Jun-17 10:01N 32°01' W 117°26'0 0.5
2018-Jun-17 09:58N 32°01' W 117°26'0 0.5
2018-Jun-17 09:01N 32°00' W 117°26'0 0.6
2018-Jun-17 08:58N 32°00' W 117°26'0 0.5
2018-Jun-17 08:28N 31°60' W 117°26'0 0.5
2018-Jun-17 07:58N 31°60' W 117°26'0 0.5
2018-Jun-17 07:25N 31°59' W 117°26'0 0.5
2018-Jun-17 06:40N 31°59' W 117°25'0 0.5
2018-Jun-17 06:22N 31°59' W 117°25'1 0.5
2018-Jun-17 05:01N 31°59' W 117°25'0 0.4
2018-Jun-17 04:58N 31°59' W 117°25'1 1.1
2018-Jun-17 04:05N 31°58' W 117°25'1 3.2
2018-Jun-17 03:50N 31°57' W 117°26'2 4.8
2018-Jun-17 03:30N 31°57' W 117°28'5 8.1
2018-Jun-17 02:54N 31°54' W 117°33'511.5
2018-Jun-17 02:29N 31°51' W 117°37'711.7
2018-Jun-17 01:55N 31°46' W 117°43'512.1
2018-Jun-17 01:30N 31°43' W 117°47'912.1
2018-Jun-17 00:48N 31°37' W 117°54'512.3
2018-Jun-17 00:22N 31°33' W 117°58'412.2
2018-Jun-17 00:00N 31°30' W 118°02'612.2
2018-Jun-16 23:28N 31°25' W 118°07'612.3
2018-Jun-16 22:57N 31°20' W 118°12'812.6
2018-Jun-16 22:16N 31°14' W 118°19'312.8
2018-Jun-16 22:00N 31°12' W 118°22'812.8
2018-Jun-16 21:23N 31°06' W 118°29'612.3
2018-Jun-16 20:56N 31°03' W 118°34'613.0
2018-Jun-16 20:30N 31°02' W 118°40'712.7
2018-Jun-16 19:59N 31°00' W 118°48'712.6
2018-Jun-16 19:27N 30°59' W 118°55'612.3
2018-Jun-16 19:00N 30°58' W 119°02'712.2
2018-Jun-16 18:26N 30°56' W 119°09'  

Dump ship's entire track history